Time;durP1;ratioP1;P1;durP2;ratioP2;P2;SDS_P1;SDS_P2;PMS_P1;PMS_P2;Temp;Humidity;BMP_temperature;BMP_pressure;BME280_temperature;BME280_humidity;BME280_pressure;Samples;Min_cycle;Max_cycle;Signal;HPM_P1;HPM_P2
2022/06/02 00:00:54;;;;;;;53.70;50.60;;;;;;;;;;5075703;28;20504;-82
2022/06/02 00:03:25;;;;;;;53.23;50.13;;;;;;;;;;5075456;28;20413;-82
2022/06/02 00:06:05;;;;;;;54.30;51.13;;;;;;;;;;5075676;28;20458;-83
2022/06/02 00:08:36;;;;;;;56.90;53.50;;;;;;;;;;5075605;28;20434;-82
2022/06/02 00:11:08;;;;;;;57.53;54.20;;;;;;;;;;5075415;28;20891;-83
2022/06/02 00:13:41;;;;;;;56.97;53.60;;;;;;;;;;5075362;28;20409;-83
2022/06/02 00:16:13;;;;;;;58.70;55.13;;;;;;;;;;5075201;28;20457;-83
2022/06/02 00:18:47;;;;;;;57.07;53.57;;;;;;;;;;5075017;28;20445;-82
2022/06/02 00:21:19;;;;;;;54.97;51.73;;;;;;;;;;5074889;28;20478;-83
2022/06/02 00:23:50;;;;;;;54.03;50.63;;;;;;;;;;5075147;28;20418;-82
2022/06/02 00:26:25;;;;;;;55.33;51.90;;;;;;;;;;5075433;28;20438;-82
2022/06/02 00:28:56;;;;;;;58.30;54.90;;;;;;;;;;5074958;28;20474;-82
2022/06/02 00:31:31;;;;;;;56.77;53.50;;;;;;;;;;5075025;28;20932;-82
2022/06/02 00:34:02;;;;;;;58.50;54.90;;;;;;;;;;5074959;28;20827;-82
2022/06/02 00:36:31;;;;;;;58.50;55.10;;;;;;;;;;5074748;28;20464;-82
2022/06/02 00:38:59;;;;;;;62.13;58.33;;;;;;;;;;5074656;28;20782;-83
2022/06/02 00:41:29;;;;;;;58.23;54.83;;;;;;;;;;5074955;28;20822;-82
2022/06/02 00:44:00;;;;;;;57.17;53.87;;;;;;;;;;5074638;28;20438;-85
2022/06/02 00:46:39;;;;;;;54.30;51.00;;;;;;;;;;5075005;28;20832;-82
2022/06/02 00:49:11;;;;;;;52.03;48.83;;;;;;;;;;5074670;28;20446;-83
2022/06/02 00:51:43;;;;;;;53.80;50.30;;;;;;;;;;5073938;28;20867;-83
2022/06/02 00:59:54;;;;;;;55.70;51.90;;;;;;;;;;5074464;28;20408;-83
2022/06/02 01:02:24;;;;;;;54.90;51.30;;;;;;;;;;5074445;28;20420;-82
2022/06/02 01:04:52;;;;;;;55.17;51.50;;;;;;;;;;5074323;28;20412;-83
2022/06/02 01:07:25;;;;;;;53.37;49.97;;;;;;;;;;5074633;28;20410;-82
2022/06/02 01:10:06;;;;;;;53.40;50.10;;;;;;;;;;5074554;28;20812;-83
2022/06/02 01:12:43;;;;;;;57.30;53.77;;;;;;;;;;5074127;28;20413;-82
2022/06/02 01:15:14;;;;;;;53.37;49.97;;;;;;;;;;5074206;28;20408;-82
2022/06/02 01:18:03;;;;;;;54.77;51.30;;;;;;;;;;5073954;28;20473;-82
2022/06/02 01:20:34;;;;;;;56.87;53.27;;;;;;;;;;5073852;28;20460;-82
2022/06/02 01:23:21;;;;;;;54.67;51.37;;;;;;;;;;5074088;28;20413;-82
2022/06/02 01:26:06;;;;;;;56.47;53.13;;;;;;;;;;5074087;28;20504;-82
2022/06/02 01:28:48;;;;;;;55.80;52.33;;;;;;;;;;5074270;28;20755;-83
2022/06/02 01:31:30;;;;;;;54.30;51.00;;;;;;;;;;5073640;28;20455;-82
2022/06/02 01:34:01;;;;;;;59.85;56.13;;;;;;;;;;5073631;28;20478;-82
2022/06/02 01:36:32;;;;;;;58.03;54.53;;;;;;;;;;5073665;28;20685;-82
2022/06/02 01:39:05;;;;;;;56.80;53.30;;;;;;;;;;5073685;28;20507;-83
2022/06/02 01:41:38;;;;;;;57.17;53.13;;;;;;;;;;5073860;28;20478;-83
2022/06/02 01:44:10;;;;;;;55.57;52.10;;;;;;;;;;5073284;28;20401;-83
2022/06/02 01:46:43;;;;;;;53.70;50.23;;;;;;;;;;5073307;28;20437;-82
2022/06/02 01:49:15;;;;;;;54.93;51.40;;;;;;;;;;5073575;28;20417;-82
2022/06/02 01:51:47;;;;;;;54.07;50.70;;;;;;;;;;5073374;28;20442;-83
2022/06/02 01:54:22;;;;;;;52.78;49.53;;;;;;;;;;5073264;28;20445;-83
2022/06/02 01:56:54;;;;;;;53.28;49.92;;;;;;;;;;5073251;28;20220;-83
2022/06/02 01:59:28;;;;;;;54.25;50.85;;;;;;;;;;5073260;28;20191;-82
2022/06/02 02:02:03;;;;;;;55.58;52.05;;;;;;;;;;5073134;28;20184;-83
2022/06/02 02:04:48;;;;;;;56.50;53.00;;;;;;;;;;5073372;28;20202;-82
2022/06/02 02:07:25;;;;;;;56.60;53.20;;;;;;;;;;5072637;28;20450;-83
2022/06/02 02:09:57;;;;;;;57.42;53.90;;;;;;;;;;5073461;28;20432;-82
2022/06/02 02:12:33;;;;;;;54.90;51.50;;;;;;;;;;5072934;28;20599;-83
2022/06/02 02:15:12;;;;;;;60.00;56.20;;;;;;;;;;5073133;28;20417;-82
2022/06/02 02:17:57;;;;;;;57.27;53.57;;;;;;;;;;5072961;28;20240;-83
2022/06/02 02:20:30;;;;;;;56.72;52.90;;;;;;;;;;5073361;28;20474;-83
2022/06/02 02:23:01;;;;;;;57.22;53.67;;;;;;;;;;5073041;28;20210;-82
2022/06/02 02:25:30;;;;;;;56.42;52.83;;;;;;;;;;5073261;28;20231;-81
2022/06/02 02:28:05;;;;;;;56.88;53.28;;;;;;;;;;5073513;28;20894;-82
2022/06/02 02:30:38;;;;;;;59.33;55.33;;;;;;;;;;5073172;28;20210;-83
2022/06/02 02:33:09;;;;;;;58.87;55.07;;;;;;;;;;5073275;28;20189;-82
2022/06/02 02:35:41;;;;;;;59.87;56.13;;;;;;;;;;5073308;28;20458;-82
2022/06/02 02:38:11;;;;;;;55.80;52.30;;;;;;;;;;5073254;28;20477;-83
2022/06/02 02:40:43;;;;;;;56.23;52.63;;;;;;;;;;5073098;28;20409;-83
2022/06/02 02:43:15;;;;;;;57.60;53.90;;;;;;;;;;5072696;28;20476;-83
2022/06/02 02:45:46;;;;;;;55.87;52.17;;;;;;;;;;5073245;28;20405;-83
2022/06/02 02:48:18;;;;;;;59.57;55.57;;;;;;;;;;5072664;28;20929;-83
2022/06/02 02:50:51;;;;;;;59.27;55.67;;;;;;;;;;5073319;28;20759;-83
2022/06/02 02:53:21;;;;;;;62.00;58.03;;;;;;;;;;5072473;28;20885;-82
2022/06/02 02:55:54;;;;;;;65.77;61.60;;;;;;;;;;5072989;28;20420;-82
2022/06/02 02:58:25;;;;;;;68.50;64.23;;;;;;;;;;5072782;28;20449;-83
2022/06/02 03:00:59;;;;;;;67.50;63.00;;;;;;;;;;5073078;28;20805;-83
2022/06/02 03:03:29;;;;;;;68.60;64.10;;;;;;;;;;5072773;28;20788;-82
2022/06/02 03:06:08;;;;;;;67.73;63.13;;;;;;;;;;5072801;28;20910;-82
2022/06/02 03:08:43;;;;;;;71.57;66.90;;;;;;;;;;5072462;28;20398;-83
2022/06/02 03:11:19;;;;;;;66.23;62.17;;;;;;;;;;5072674;28;20849;-83
2022/06/02 03:13:53;;;;;;;69.27;64.53;;;;;;;;;;5074150;28;20409;-83
2022/06/02 03:16:21;;;;;;;67.33;62.33;;;;;;;;;;5076139;28;20413;-82
2022/06/02 03:18:53;;;;;;;71.73;66.60;;;;;;;;;;5076216;28;20439;-82
2022/06/02 03:21:26;;;;;;;69.20;64.30;;;;;;;;;;5076512;28;20440;-83
2022/06/02 03:24:18;;;;;;;66.77;61.97;;;;;;;;;;5076673;28;20405;-83
2022/06/02 03:26:52;;;;;;;72.00;67.20;;;;;;;;;;5076776;28;20438;-83
2022/06/02 03:29:24;;;;;;;66.17;61.60;;;;;;;;;;5076719;28;20433;-83
2022/06/02 03:31:57;;;;;;;74.00;68.60;;;;;;;;;;5076322;28;20413;-83
2022/06/02 03:34:27;;;;;;;71.87;66.33;;;;;;;;;;5076001;28;20438;-83
2022/06/02 03:37:15;;;;;;;70.83;65.83;;;;;;;;;;5076104;28;20479;-83
2022/06/02 03:39:51;;;;;;;73.17;67.63;;;;;;;;;;5069704;28;20944;-83
2022/06/02 03:42:25;;;;;;;70.27;64.97;;;;;;;;;;5075932;28;20433;-81
2022/06/02 03:44:58;;;;;;;69.50;64.30;;;;;;;;;;5076095;28;20449;-83
2022/06/02 03:47:35;;;;;;;72.10;66.30;;;;;;;;;;5075800;28;20482;-83
2022/06/02 03:50:20;;;;;;;74.03;68.27;;;;;;;;;;5076140;28;20441;-83
2022/06/02 03:52:55;;;;;;;70.03;65.00;;;;;;;;;;5076035;28;20434;-83
2022/06/02 03:55:29;;;;;;;71.47;65.50;;;;;;;;;;5076070;28;20441;-83
2022/06/02 03:58:03;;;;;;;69.70;64.20;;;;;;;;;;5075497;28;20997;-83
2022/06/02 04:00:33;;;;;;;68.93;63.57;;;;;;;;;;5075747;28;20771;-83
2022/06/02 04:03:03;;;;;;;72.77;66.63;;;;;;;;;;5075687;28;20413;-82
2022/06/02 04:05:48;;;;;;;70.17;64.40;;;;;;;;;;5075739;28;20486;-83
2022/06/02 04:08:23;;;;;;;68.20;62.43;;;;;;;;;;5075675;28;20427;-83
2022/06/02 04:10:56;;;;;;;72.73;66.63;;;;;;;;;;5075479;28;20441;-83
2022/06/02 04:13:37;;;;;;;72.20;65.27;;;;;;;;;;5075311;28;20485;-83
2022/06/02 04:16:10;;;;;;;70.80;65.17;;;;;;;;;;5075106;28;20414;-83
2022/06/02 04:18:44;;;;;;;71.03;65.30;;;;;;;;;;5075270;28;20452;-83
2022/06/02 04:21:16;;;;;;;73.70;66.27;;;;;;;;;;5074978;28;20448;-83
2022/06/02 04:24:00;;;;;;;71.23;63.80;;;;;;;;;;5075288;28;20471;-82
2022/06/02 04:26:35;;;;;;;71.57;65.70;;;;;;;;;;5075557;28;20868;-83
2022/06/02 04:29:07;;;;;;;87.82;68.55;;;;;;;;;;5075485;28;20460;-83
2022/06/02 04:31:40;;;;;;;72.90;65.90;;;;;;;;;;5075178;28;20215;-83
2022/06/02 04:34:12;;;;;;;75.77;68.37;;;;;;;;;;5074984;28;20438;-82
2022/06/02 04:36:56;;;;;;;72.97;66.50;;;;;;;;;;5075339;28;20435;-83
2022/06/02 04:39:27;;;;;;;68.63;62.10;;;;;;;;;;5075280;28;20408;-83
2022/06/02 04:41:58;;;;;;;72.63;66.50;;;;;;;;;;5074885;28;20480;-82
2022/06/02 04:44:29;;;;;;;76.63;69.13;;;;;;;;;;5074983;28;20409;-83
2022/06/02 04:47:05;;;;;;;71.73;66.43;;;;;;;;;;5074937;28;20842;-83
2022/06/02 04:49:35;;;;;;;74.77;67.67;;;;;;;;;;5075145;28;20420;-82
2022/06/02 04:52:07;;;;;;;75.27;69.30;;;;;;;;;;5075634;28;20457;-81
2022/06/02 04:54:41;;;;;;;72.40;66.60;;;;;;;;;;5074464;28;20813;-83
2022/06/02 04:57:14;;;;;;;74.03;68.60;;;;;;;;;;5074405;28;20484;-83
2022/06/02 04:59:51;;;;;;;74.25;68.15;;;;;;;;;;5074345;28;20446;-82
2022/06/02 05:02:23;;;;;;;77.57;71.67;;;;;;;;;;5074494;28;20619;-83
2022/06/02 05:04:53;;;;;;;81.67;73.60;;;;;;;;;;5074466;28;20441;-83
2022/06/02 05:07:27;;;;;;;77.47;71.17;;;;;;;;;;5074067;28;20771;-83
2022/06/02 05:09:58;;;;;;;74.20;68.57;;;;;;;;;;5074302;28;20428;-83
2022/06/02 05:12:32;;;;;;;73.33;67.13;;;;;;;;;;5074314;28;20449;-82
2022/06/02 05:15:06;;;;;;;70.23;64.80;;;;;;;;;;5074288;28;20537;-83
2022/06/02 05:17:57;;;;;;;74.20;68.17;;;;;;;;;;5074227;28;20504;-83
2022/06/02 05:20:39;;;;;;;77.20;70.67;;;;;;;;;;5054042;28;20850;-82
2022/06/02 05:23:21;;;;;;;70.63;64.60;;;;;;;;;;5071093;28;20429;-83
2022/06/02 05:26:15;;;;;;;71.60;66.27;;;;;;;;;;5071325;28;20200;-83
2022/06/02 05:29:00;;;;;;;73.63;67.17;;;;;;;;;;5074165;28;20485;-83
2022/06/02 05:31:43;;;;;;;70.10;64.10;;;;;;;;;;5073883;28;20439;-83
2022/06/02 05:34:25;;;;;;;69.90;64.20;;;;;;;;;;5074057;28;20438;-83
2022/06/02 05:36:59;;;;;;;68.57;63.13;;;;;;;;;;5073373;28;20621;-83
2022/06/02 05:39:42;;;;;;;68.47;62.47;;;;;;;;;;5073668;28;20419;-83
2022/06/02 05:42:15;;;;;;;65.17;60.10;;;;;;;;;;5073427;28;20439;-83
2022/06/02 05:44:49;;;;;;;64.13;59.03;;;;;;;;;;5073673;28;20442;-83
2022/06/02 05:47:23;;;;;;;63.63;58.03;;;;;;;;;;5073480;28;20454;-83
2022/06/02 05:49:55;;;;;;;65.37;60.17;;;;;;;;;;5073725;28;20417;-83
2022/06/02 05:52:27;;;;;;;61.60;56.77;;;;;;;;;;5073709;28;20526;-83
2022/06/02 05:55:08;;;;;;;60.60;55.97;;;;;;;;;;5073608;28;20443;-83
2022/06/02 05:57:37;;;;;;;60.03;54.57;;;;;;;;;;5056222;28;20574;-83
2022/06/02 06:00:11;;;;;;;60.47;55.27;;;;;;;;;;5073615;28;20417;-84
2022/06/02 06:02:57;;;;;;;60.40;54.57;;;;;;;;;;5073432;28;20442;-82
2022/06/02 06:05:27;;;;;;;57.30;52.60;;;;;;;;;;5073323;28;20465;-83
2022/06/02 06:08:06;;;;;;;60.60;55.53;;;;;;;;;;5073232;28;20985;-83
2022/06/02 06:10:38;;;;;;;62.77;57.70;;;;;;;;;;5073699;28;20782;-82
2022/06/02 06:13:10;;;;;;;61.43;56.63;;;;;;;;;;5073251;28;21224;-83
2022/06/02 06:15:44;;;;;;;59.73;54.77;;;;;;;;;;5073268;28;20430;-83
2022/06/02 06:18:19;;;;;;;58.27;53.73;;;;;;;;;;5072829;28;20965;-83
2022/06/02 06:20:54;;;;;;;57.10;52.50;;;;;;;;;;5072922;28;20835;-83
2022/06/02 06:23:35;;;;;;;54.70;50.20;;;;;;;;;;5072931;28;20882;-83
2022/06/02 06:26:12;;;;;;;53.37;48.83;;;;;;;;;;5073254;28;20438;-84
2022/06/02 06:28:43;;;;;;;52.40;48.37;;;;;;;;;;5073571;28;20541;-83
2022/06/02 06:31:15;;;;;;;55.87;51.20;;;;;;;;;;5073181;28;20424;-83
2022/06/02 06:33:53;;;;;;;53.73;49.53;;;;;;;;;;5073060;28;20426;-83
2022/06/02 06:36:29;;;;;;;55.03;50.73;;;;;;;;;;5072905;28;20417;-83
2022/06/02 06:39:04;;;;;;;53.00;48.70;;;;;;;;;;5072995;28;20915;-83
2022/06/02 06:41:39;;;;;;;54.40;50.20;;;;;;;;;;5072931;28;20499;-83
2022/06/02 06:44:11;;;;;;;52.33;48.10;;;;;;;;;;5073206;28;20773;-82
2022/06/02 06:46:43;;;;;;;50.43;46.07;;;;;;;;;;5073085;28;20409;-83
2022/06/02 06:49:14;;;;;;;51.30;47.10;;;;;;;;;;5075386;28;20408;-84
2022/06/02 06:51:45;;;;;;;50.30;46.37;;;;;;;;;;5077241;28;20405;-83
2022/06/02 06:54:17;;;;;;;52.80;48.53;;;;;;;;;;5076726;28;20920;-83
2022/06/02 06:56:49;;;;;;;50.37;46.43;;;;;;;;;;5076772;28;20476;-83
2022/06/02 06:59:26;;;;;;;50.07;45.60;;;;;;;;;;5077020;28;20456;-83
2022/06/02 07:02:02;;;;;;;51.00;46.90;;;;;;;;;;5059035;28;20515;-83
2022/06/02 07:04:34;;;;;;;49.57;45.67;;;;;;;;;;5076557;28;20513;-83
2022/06/02 07:07:04;;;;;;;50.90;46.70;;;;;;;;;;5076682;28;20441;-83
2022/06/02 07:09:35;;;;;;;50.90;46.77;;;;;;;;;;5077030;28;20417;-83
2022/06/02 07:14:53;;;;;;;46.10;42.53;;;;;;;;;;5076548;28;20396;-83
2022/06/02 07:17:29;;;;;;;44.90;41.00;;;;;;;;;;5076353;28;20474;-83
2022/06/02 07:20:00;;;;;;;47.10;42.93;;;;;;;;;;5076269;28;20840;-83
2022/06/02 07:22:33;;;;;;;45.67;42.17;;;;;;;;;;5076442;28;20470;-82
2022/06/02 07:25:05;;;;;;;43.37;39.87;;;;;;;;;;5076293;28;20442;-83
2022/06/02 07:27:37;;;;;;;43.83;40.33;;;;;;;;;;5076254;28;21208;-83
2022/06/02 07:30:15;;;;;;;43.47;40.27;;;;;;;;;;5076300;28;20441;-83
2022/06/02 07:32:50;;;;;;;46.53;42.73;;;;;;;;;;5076182;28;20443;-83
2022/06/02 07:35:36;;;;;;;41.43;38.23;;;;;;;;;;5076277;28;20434;-83
2022/06/02 07:38:08;;;;;;;41.80;38.63;;;;;;;;;;5076380;28;20481;-83
2022/06/02 07:40:43;;;;;;;41.97;38.27;;;;;;;;;;5076313;28;20438;-83
2022/06/02 07:43:21;;;;;;;41.80;38.10;;;;;;;;;;5076058;28;20424;-83
2022/06/02 07:45:53;;;;;;;39.83;36.53;;;;;;;;;;5058225;28;20405;-83
2022/06/02 07:48:33;;;;;;;43.57;39.73;;;;;;;;;;5076029;28;20413;-83
2022/06/02 07:51:05;;;;;;;41.53;37.80;;;;;;;;;;5076018;28;20434;-83
2022/06/02 07:53:37;;;;;;;40.23;36.70;;;;;;;;;;5075843;28;20477;-83
2022/06/02 07:56:09;;;;;;;40.70;37.23;;;;;;;;;;5075962;28;20405;-83
2022/06/02 07:58:40;;;;;;;39.67;36.33;;;;;;;;;;5075802;28;20461;-83
2022/06/02 08:01:13;;;;;;;42.80;39.30;;;;;;;;;;5075539;28;20466;-83
2022/06/02 08:03:55;;;;;;;38.20;35.00;;;;;;;;;;5075787;28;20413;-83
2022/06/02 08:06:31;;;;;;;37.83;34.83;;;;;;;;;;5075863;28;20804;-83
2022/06/02 08:09:19;;;;;;;38.40;35.30;;;;;;;;;;5075857;28;20442;-83
2022/06/02 08:11:54;;;;;;;37.03;34.03;;;;;;;;;;5058228;28;20888;-84
2022/06/02 08:14:25;;;;;;;34.63;31.87;;;;;;;;;;5075469;28;20424;-83
2022/06/02 08:16:57;;;;;;;34.67;32.10;;;;;;;;;;5075417;28;20991;-83
2022/06/02 08:19:31;;;;;;;34.10;31.33;;;;;;;;;;5075294;28;20502;-83
2022/06/02 08:22:02;;;;;;;36.03;33.17;;;;;;;;;;5075701;28;20421;-83
2022/06/02 08:24:38;;;;;;;34.83;31.87;;;;;;;;;;5075234;28;20495;-83
2022/06/02 08:27:16;;;;;;;34.53;31.47;;;;;;;;;;5074973;28;20462;-83
2022/06/02 08:29:53;;;;;;;32.20;29.50;;;;;;;;;;5075283;28;20424;-83
2022/06/02 08:32:29;;;;;;;33.97;31.17;;;;;;;;;;5075264;28;20432;-83
2022/06/02 08:35:04;;;;;;;32.33;29.50;;;;;;;;;;5075180;28;20446;-83
2022/06/02 08:37:38;;;;;;;33.47;30.80;;;;;;;;;;5074943;28;20903;-83
2022/06/02 08:40:21;;;;;;;34.37;31.53;;;;;;;;;;5074781;28;20455;-83
2022/06/02 08:43:09;;;;;;;33.50;30.67;;;;;;;;;;5074831;28;20417;-83
2022/06/02 08:45:58;;;;;;;33.17;30.60;;;;;;;;;;5068529;28;20968;-84
2022/06/02 08:48:58;;;;;;;34.57;31.87;;;;;;;;;;5074769;28;20473;-83
2022/06/02 08:51:52;;;;;;;34.50;31.80;;;;;;;;;;4993420;28;20431;-83
2022/06/02 08:54:34;;;;;;;33.47;30.87;;;;;;;;;;4993232;28;20453;-82
2022/06/02 08:57:17;;;;;;;30.57;27.97;;;;;;;;;;4993143;28;20449;-84
2022/06/02 09:00:04;;;;;;;30.90;28.40;;;;;;;;;;4993337;28;20460;-83
2022/06/02 09:02:43;;;;;;;30.70;28.30;;;;;;;;;;4993113;28;20465;-83
2022/06/02 09:05:28;;;;;;;31.20;28.67;;;;;;;;;;4993054;28;20953;-82
2022/06/02 09:08:03;;;;;;;30.60;28.20;;;;;;;;;;4992938;28;20501;-83
2022/06/02 09:10:51;;;;;;;30.13;27.83;;;;;;;;;;4992307;28;20494;-83
2022/06/02 09:13:38;;;;;;;33.03;30.53;;;;;;;;;;4992496;28;20839;-83
2022/06/02 09:16:21;;;;;;;32.13;29.53;;;;;;;;;;4992943;28;20460;-83
2022/06/02 09:19:03;;;;;;;27.80;25.90;;;;;;;;;;4992880;28;20516;-81
2022/06/02 09:21:35;;;;;;;30.57;28.07;;;;;;;;;;5004780;28;20436;-83
2022/06/02 09:24:12;;;;;;;29.07;26.53;;;;;;;;;;5074251;28;20435;-83
2022/06/02 09:26:51;;;;;;;29.60;27.40;;;;;;;;;;5073933;28;20420;-83
2022/06/02 09:29:23;;;;;;;29.27;26.67;;;;;;;;;;5074025;28;20854;-83
2022/06/02 09:32:04;;;;;;;29.83;27.43;;;;;;;;;;5074489;28;20429;-83
2022/06/02 09:34:39;;;;;;;28.53;26.43;;;;;;;;;;5074158;28;20482;-82
2022/06/02 09:37:23;;;;;;;27.47;25.10;;;;;;;;;;5056512;28;20823;-83
2022/06/02 09:39:56;;;;;;;28.93;26.60;;;;;;;;;;5073550;28;20453;-84
2022/06/02 09:42:43;;;;;;;27.93;25.73;;;;;;;;;;5073571;28;20806;-83
2022/06/02 09:45:24;;;;;;;25.83;23.80;;;;;;;;;;5073841;28;20406;-83
2022/06/02 09:47:59;;;;;;;23.97;22.47;;;;;;;;;;5055891;28;20440;-83
2022/06/02 09:50:32;;;;;;;25.77;23.93;;;;;;;;;;5073910;28;20446;-82
2022/06/02 09:53:27;;;;;;;23.23;21.63;;;;;;;;;;5073392;28;20409;-83
2022/06/02 09:56:05;;;;;;;26.17;24.17;;;;;;;;;;4991866;28;20450;-83
2022/06/02 09:58:41;;;;;;;23.63;22.13;;;;;;;;;;4975632;28;20527;-83
2022/06/02 10:01:33;;;;;;;23.13;21.70;;;;;;;;;;4991938;28;20442;-83
2022/06/02 10:04:20;;;;;;;23.30;21.70;;;;;;;;;;4982346;28;20469;-82
2022/06/02 10:07:14;;;;;;;24.80;23.17;;;;;;;;;;4991889;28;20487;-83
2022/06/02 10:09:59;;;;;;;23.37;21.87;;;;;;;;;;4953303;29;20481;-83
2022/06/02 10:15:26;;;;;;;21.40;20.20;;;;;;;;;;4953577;29;20402;-83
2022/06/02 10:18:03;;;;;;;22.70;21.13;;;;;;;;;;4952878;29;20767;-83
2022/06/02 10:20:56;;;;;;;23.97;22.57;;;;;;;;;;4952962;29;21010;-83
2022/06/02 10:23:36;;;;;;;24.77;23.27;;;;;;;;;;4928293;29;20459;-83
2022/06/02 10:26:08;;;;;;;23.87;22.30;;;;;;;;;;4953224;29;20437;-83
2022/06/02 10:28:50;;;;;;;25.43;23.60;;;;;;;;;;4953404;29;20795;-82
2022/06/02 10:31:47;;;;;;;23.30;21.90;;;;;;;;;;4928719;28;20478;-83
2022/06/02 10:34:33;;;;;;;25.37;23.87;;;;;;;;;;4914756;29;20891;-82
2022/06/02 10:37:11;;;;;;;24.10;22.70;;;;;;;;;;4914622;29;20432;-83
2022/06/02 10:39:47;;;;;;;23.00;21.80;;;;;;;;;;4914382;29;20475;-81
2022/06/02 10:42:22;;;;;;;21.87;20.77;;;;;;;;;;4914615;29;20428;-83
2022/06/02 10:45:01;;;;;;;23.83;22.53;;;;;;;;;;4928166;28;20443;-83
2022/06/02 10:47:40;;;;;;;23.00;21.60;;;;;;;;;;4972103;28;20505;-83
2022/06/02 10:50:18;;;;;;;23.23;21.93;;;;;;;;;;4971949;28;20461;-82
2022/06/02 10:53:09;;;;;;;23.27;21.97;;;;;;;;;;4972235;28;20477;-83
2022/06/02 10:56:08;;;;;;;23.67;22.37;;;;;;;;;;4956076;28;20461;-83
2022/06/02 10:58:46;;;;;;;23.90;22.60;;;;;;;;;;4933573;29;20867;-82
2022/06/02 11:01:32;;;;;;;24.07;22.40;;;;;;;;;;4933782;29;20454;-82
2022/06/02 11:04:14;;;;;;;23.00;21.70;;;;;;;;;;4933348;29;20430;-82
2022/06/02 11:07:03;;;;;;;22.50;21.20;;;;;;;;;;4933783;29;20428;-83
2022/06/02 11:10:01;;;;;;;22.20;21.00;;;;;;;;;;4989177;28;20437;-83
2022/06/02 11:12:47;;;;;;;22.43;21.23;;;;;;;;;;4933486;29;20979;-83
2022/06/02 11:15:25;;;;;;;22.90;21.70;;;;;;;;;;4914426;29;20902;-82
2022/06/02 11:18:07;;;;;;;24.13;22.63;;;;;;;;;;4914556;29;20478;-84
2022/06/02 11:20:42;;;;;;;24.17;22.87;;;;;;;;;;4925377;29;20478;-83
2022/06/02 11:23:29;;;;;;;22.70;21.40;;;;;;;;;;4933300;29;20422;-83
2022/06/02 11:26:04;;;;;;;23.50;22.10;;;;;;;;;;4933489;29;20486;-83
2022/06/02 11:28:58;;;;;;;23.90;22.60;;;;;;;;;;4933576;29;20825;-83
2022/06/02 11:31:38;;;;;;;24.23;22.83;;;;;;;;;;4933410;29;20426;-83
2022/06/02 11:34:23;;;;;;;24.30;22.90;;;;;;;;;;4971675;28;20794;-83
2022/06/02 11:37:09;;;;;;;24.73;23.27;;;;;;;;;;4974403;28;20479;-83
2022/06/02 11:39:55;;;;;;;24.50;23.10;;;;;;;;;;4975104;28;20473;-83
2022/06/02 11:42:29;;;;;;;24.00;22.60;;;;;;;;;;4975015;28;20414;-83
2022/06/02 11:45:04;;;;;;;25.07;23.23;;;;;;;;;;4974989;28;20449;-83
2022/06/02 11:47:49;;;;;;;23.07;21.77;;;;;;;;;;5041000;28;20442;-83
2022/06/02 11:50:31;;;;;;;24.33;22.37;;;;;;;;;;5022176;28;20457;-83
2022/06/02 11:53:04;;;;;;;23.50;22.00;;;;;;;;;;5055907;28;20406;-83
2022/06/02 11:55:34;;;;;;;24.87;23.47;;;;;;;;;;5056055;28;20474;-83
2022/06/02 11:58:20;;;;;;;23.83;22.33;;;;;;;;;;5055683;28;20774;-83
2022/06/02 12:00:58;;;;;;;24.13;22.73;;;;;;;;;;5055508;28;20458;-83
2022/06/02 12:03:44;;;;;;;24.47;22.97;;;;;;;;;;5055220;28;20438;-83
2022/06/02 12:06:29;;;;;;;24.00;22.70;;;;;;;;;;5055769;28;20425;-83
2022/06/02 12:09:10;;;;;;;24.90;23.20;;;;;;;;;;5055398;28;20417;-82
2022/06/02 12:11:45;;;;;;;24.23;22.83;;;;;;;;;;5055188;28;20917;-83
2022/06/02 12:14:22;;;;;;;24.60;23.03;;;;;;;;;;5055909;28;20405;-83
2022/06/02 12:16:55;;;;;;;23.20;21.87;;;;;;;;;;5055475;28;20437;-82
2022/06/02 12:19:40;;;;;;;22.90;21.60;;;;;;;;;;5058763;28;20477;-82
2022/06/02 12:22:17;;;;;;;23.10;21.80;;;;;;;;;;5062059;28;20433;-83
2022/06/02 12:25:04;;;;;;;23.33;22.03;;;;;;;;;;5075320;28;20416;-83
2022/06/02 12:27:51;;;;;;;23.37;21.83;;;;;;;;;;5075394;28;20401;-82
2022/06/02 12:30:33;;;;;;;22.87;21.47;;;;;;;;;;5075010;28;20537;-83
2022/06/02 12:33:08;;;;;;;23.53;22.23;;;;;;;;;;5075089;28;20834;-83
2022/06/02 12:35:53;;;;;;;23.73;22.30;;;;;;;;;;5074988;28;20492;-83
2022/06/02 12:38:38;;;;;;;24.03;22.63;;;;;;;;;;5061865;28;20919;-83
2022/06/02 12:41:26;;;;;;;24.13;22.73;;;;;;;;;;5074977;28;20491;-82
2022/06/02 12:44:07;;;;;;;24.67;23.27;;;;;;;;;;5041567;28;20429;-82
2022/06/02 12:46:44;;;;;;;24.20;22.90;;;;;;;;;;5074578;28;20454;-82
2022/06/02 12:49:26;;;;;;;24.73;23.33;;;;;;;;;;5074719;28;20445;-82
2022/06/02 12:52:00;;;;;;;24.10;22.60;;;;;;;;;;5057919;28;20800;-83
2022/06/02 12:54:53;;;;;;;24.03;22.63;;;;;;;;;;5074487;28;20410;-82
2022/06/02 12:57:38;;;;;;;24.07;22.77;;;;;;;;;;5074464;28;20515;-83
2022/06/02 13:00:23;;;;;;;25.43;23.93;;;;;;;;;;5073857;28;20501;-82
2022/06/02 13:03:02;;;;;;;24.17;22.77;;;;;;;;;;5061048;28;20828;-82
2022/06/02 13:05:48;;;;;;;25.27;23.83;;;;;;;;;;5074209;28;20428;-83
2022/06/02 13:08:43;;;;;;;24.70;22.83;;;;;;;;;;5056760;28;20434;-82
2022/06/02 13:11:33;;;;;;;24.60;23.20;;;;;;;;;;5074340;28;20417;-83
2022/06/02 13:14:12;;;;;;;24.60;23.10;;;;;;;;;;5074581;28;20502;-83
2022/06/02 13:16:50;;;;;;;24.60;23.10;;;;;;;;;;5074438;28;20437;-83
2022/06/02 13:19:31;;;;;;;24.17;22.77;;;;;;;;;;5074136;28;20468;-83
2022/06/02 13:22:08;;;;;;;23.83;22.33;;;;;;;;;;5073815;28;20432;-83
2022/06/02 13:24:49;;;;;;;23.40;22.00;;;;;;;;;;5074225;28;20436;-83
2022/06/02 13:27:25;;;;;;;24.53;23.13;;;;;;;;;;5073944;28;20454;-82
2022/06/02 13:30:13;;;;;;;25.40;24.00;;;;;;;;;;5074033;28;20513;-83
2022/06/02 13:32:50;;;;;;;24.53;23.13;;;;;;;;;;5067474;28;20444;-83
2022/06/02 13:35:35;;;;;;;23.90;22.50;;;;;;;;;;5074064;28;20465;-82
2022/06/02 13:38:29;;;;;;;24.10;22.80;;;;;;;;;;5073989;28;20425;-83
2022/06/02 13:41:08;;;;;;;24.70;23.30;;;;;;;;;;4991992;28;20819;-82
2022/06/02 13:43:46;;;;;;;24.67;23.17;;;;;;;;;;4992219;28;20457;-83
2022/06/02 13:46:29;;;;;;;24.07;22.67;;;;;;;;;;4992195;28;20408;-82
2022/06/02 13:49:15;;;;;;;24.33;22.93;;;;;;;;;;4992136;28;20793;-83
2022/06/02 13:52:00;;;;;;;24.80;23.30;;;;;;;;;;4992007;28;20436;-83
2022/06/02 13:57:42;;;;;;;24.73;23.33;;;;;;;;;;4991627;28;20871;-82
2022/06/02 14:00:17;;;;;;;24.50;23.00;;;;;;;;;;4991871;28;20605;-82
2022/06/02 14:02:54;;;;;;;26.03;24.33;;;;;;;;;;4991571;28;20469;-83
2022/06/02 14:05:28;;;;;;;25.30;23.70;;;;;;;;;;4991838;28;20545;-82
2022/06/02 14:08:16;;;;;;;25.03;23.43;;;;;;;;;;4991632;28;20445;-82
2022/06/02 14:10:59;;;;;;;23.50;22.03;;;;;;;;;;4987088;28;20472;-83
2022/06/02 14:13:39;;;;;;;23.80;22.40;;;;;;;;;;4991831;28;20413;-82
2022/06/02 14:16:09;;;;;;;24.17;22.77;;;;;;;;;;5011869;28;21026;-83
2022/06/02 14:18:58;;;;;;;24.70;23.30;;;;;;;;;;5073101;28;20434;-83
2022/06/02 14:21:31;;;;;;;24.40;23.00;;;;;;;;;;5072856;28;20484;-83
2022/06/02 14:24:03;;;;;;;24.73;23.23;;;;;;;;;;5072901;28;20477;-82
2022/06/02 14:26:37;;;;;;;24.87;22.83;;;;;;;;;;5072703;28;20438;-83
2022/06/02 14:29:10;;;;;;;23.93;22.43;;;;;;;;;;5073224;28;20540;-82
2022/06/02 14:31:43;;;;;;;23.20;21.80;;;;;;;;;;5055087;28;20425;-83
2022/06/02 14:34:16;;;;;;;24.13;22.67;;;;;;;;;;5072890;28;20442;-82
2022/06/02 14:36:46;;;;;;;24.83;23.33;;;;;;;;;;5072763;28;20453;-83
2022/06/02 14:39:20;;;;;;;23.77;22.37;;;;;;;;;;5073021;28;20443;-82
2022/06/02 14:41:56;;;;;;;23.70;22.17;;;;;;;;;;5073105;28;20515;-83
2022/06/02 14:44:29;;;;;;;24.90;23.10;;;;;;;;;;5072672;28;20417;-83
2022/06/02 14:47:14;;;;;;;24.77;23.10;;;;;;;;;;5073134;28;20442;-82
2022/06/02 14:49:59;;;;;;;25.33;23.63;;;;;;;;;;5072870;28;20409;-83
2022/06/02 14:52:39;;;;;;;23.20;21.70;;;;;;;;;;5072509;28;20425;-82
2022/06/02 14:55:10;;;;;;;23.50;22.00;;;;;;;;;;5072848;28;20442;-81
2022/06/02 14:57:54;;;;;;;24.30;22.70;;;;;;;;;;5072902;28;20405;-83
2022/06/02 15:00:25;;;;;;;25.33;23.63;;;;;;;;;;5072882;28;20810;-83
2022/06/02 15:03:15;;;;;;;25.17;23.67;;;;;;;;;;5072555;28;20444;-83
2022/06/02 15:05:56;;;;;;;24.90;23.50;;;;;;;;;;5072804;28;20413;-82
2022/06/02 15:08:38;;;;;;;23.00;21.67;;;;;;;;;;5072818;28;20443;-83
2022/06/02 15:11:09;;;;;;;23.73;22.27;;;;;;;;;;5059829;28;20421;-82
2022/06/02 15:13:46;;;;;;;23.77;22.37;;;;;;;;;;5076608;28;20938;-83
2022/06/02 15:16:28;;;;;;;22.70;21.30;;;;;;;;;;5075668;28;20523;-82
2022/06/02 15:19:13;;;;;;;24.87;23.27;;;;;;;;;;5033082;28;20447;-83
2022/06/02 15:21:49;;;;;;;23.20;21.80;;;;;;;;;;5075703;28;20497;-82
2022/06/02 15:24:36;;;;;;;24.73;23.30;;;;;;;;;;5076492;28;20408;-82
2022/06/02 15:27:18;;;;;;;24.60;23.20;;;;;;;;;;5076077;28;20428;-82
2022/06/02 15:29:57;;;;;;;25.00;23.60;;;;;;;;;;5076244;28;20409;-82